sensor_id;sensor_type;location;lat;lon;timestamp;pressure;altitude;pressure_sealevel;temperature;humidity
22020;BME280;51298;53.362;-1.518;2023-12-07T00:00:22;99205.94;;;0.79;90.99
22020;BME280;51298;53.362;-1.518;2023-12-07T00:02:56;99205.31;;;0.75;90.24
22020;BME280;51298;53.362;-1.518;2023-12-07T00:05:46;99203.75;;;0.72;90.51
22020;BME280;51298;53.362;-1.518;2023-12-07T00:08:20;99202.00;;;0.73;90.69
22020;BME280;51298;53.362;-1.518;2023-12-07T00:11:39;99198.22;;;0.79;90.70
22020;BME280;51298;53.362;-1.518;2023-12-07T00:14:12;99189.25;;;0.71;90.62
22020;BME280;51298;53.362;-1.518;2023-12-07T00:16:58;99182.50;;;0.70;90.49
22020;BME280;51298;53.362;-1.518;2023-12-07T00:19:35;99194.50;;;0.70;91.18
22020;BME280;51298;53.362;-1.518;2023-12-07T00:22:22;99178.16;;;0.71;91.19
22020;BME280;51298;53.362;-1.518;2023-12-07T00:24:57;99175.47;;;0.72;91.14
22020;BME280;51298;53.362;-1.518;2023-12-07T00:27:45;99175.09;;;0.79;90.74
22020;BME280;51298;53.362;-1.518;2023-12-07T00:30:19;99167.56;;;0.76;90.33
22020;BME280;51298;53.362;-1.518;2023-12-07T00:33:05;99172.00;;;0.73;90.97
22020;BME280;51298;53.362;-1.518;2023-12-07T00:35:38;99169.44;;;0.73;90.75
22020;BME280;51298;53.362;-1.518;2023-12-07T00:38:27;99164.50;;;0.70;90.51
22020;BME280;51298;53.362;-1.518;2023-12-07T00:41:04;99154.22;;;0.70;90.84
22020;BME280;51298;53.362;-1.518;2023-12-07T00:43:50;99151.94;;;0.66;91.12
22020;BME280;51298;53.362;-1.518;2023-12-07T00:46:24;99151.63;;;0.70;91.03
22020;BME280;51298;53.362;-1.518;2023-12-07T00:49:10;99145.38;;;0.75;90.65
22020;BME280;51298;53.362;-1.518;2023-12-07T00:51:45;99142.88;;;0.73;91.13
22020;BME280;51298;53.362;-1.518;2023-12-07T00:54:34;99137.97;;;0.70;91.26
22020;BME280;51298;53.362;-1.518;2023-12-07T00:57:08;99132.19;;;0.66;91.72
22020;BME280;51298;53.362;-1.518;2023-12-07T00:59:56;99126.53;;;0.61;91.42
22020;BME280;51298;53.362;-1.518;2023-12-07T01:02:30;99126.44;;;0.63;91.01
22020;BME280;51298;53.362;-1.518;2023-12-07T01:05:17;99121.50;;;0.60;91.90
22020;BME280;51298;53.362;-1.518;2023-12-07T01:07:52;99126.25;;;0.66;91.73
22020;BME280;51298;53.362;-1.518;2023-12-07T01:10:40;99119.16;;;0.69;91.58
22020;BME280;51298;53.362;-1.518;2023-12-07T01:13:24;99112.03;;;0.73;90.88
22020;BME280;51298;53.362;-1.518;2023-12-07T01:16:14;99115.53;;;0.72;91.18
22020;BME280;51298;53.362;-1.518;2023-12-07T01:18:49;99117.09;;;0.75;91.70
22020;BME280;51298;53.362;-1.518;2023-12-07T01:21:37;99109.28;;;0.76;91.43
22020;BME280;51298;53.362;-1.518;2023-12-07T01:24:12;99109.81;;;0.81;91.43
22020;BME280;51298;53.362;-1.518;2023-12-07T01:26:58;99112.78;;;0.75;91.23
22020;BME280;51298;53.362;-1.518;2023-12-07T01:29:34;99110.81;;;0.79;91.61
22020;BME280;51298;53.362;-1.518;2023-12-07T01:32:21;99106.19;;;0.84;91.43
22020;BME280;51298;53.362;-1.518;2023-12-07T01:34:58;99111.31;;;0.84;91.56
22020;BME280;51298;53.362;-1.518;2023-12-07T01:37:46;99107.44;;;0.91;91.35
22020;BME280;51298;53.362;-1.518;2023-12-07T01:40:20;99111.88;;;0.89;92.03
22020;BME280;51298;53.362;-1.518;2023-12-07T01:43:10;99110.00;;;0.91;91.25
22020;BME280;51298;53.362;-1.518;2023-12-07T01:45:43;99110.22;;;1.01;91.91
22020;BME280;51298;53.362;-1.518;2023-12-07T01:48:29;99110.31;;;0.99;91.83
22020;BME280;51298;53.362;-1.518;2023-12-07T01:51:08;99111.47;;;1.08;91.53
22020;BME280;51298;53.362;-1.518;2023-12-07T01:53:56;99095.91;;;1.09;91.11
22020;BME280;51298;53.362;-1.518;2023-12-07T01:56:30;99085.22;;;1.03;91.77
22020;BME280;51298;53.362;-1.518;2023-12-07T01:59:23;99081.94;;;1.01;91.88
22020;BME280;51298;53.362;-1.518;2023-12-07T02:01:58;99073.41;;;1.00;92.21
22020;BME280;51298;53.362;-1.518;2023-12-07T02:04:48;99065.25;;;1.06;91.50
22020;BME280;51298;53.362;-1.518;2023-12-07T02:07:30;99062.69;;;1.06;92.11
22020;BME280;51298;53.362;-1.518;2023-12-07T02:10:19;99061.03;;;1.05;91.81
22020;BME280;51298;53.362;-1.518;2023-12-07T02:12:55;99057.84;;;1.02;91.96
22020;BME280;51298;53.362;-1.518;2023-12-07T02:15:43;99057.63;;;1.17;92.05
22020;BME280;51298;53.362;-1.518;2023-12-07T02:18:26;99062.88;;;1.16;91.83
22020;BME280;51298;53.362;-1.518;2023-12-07T02:21:20;99056.91;;;1.15;91.51
22020;BME280;51298;53.362;-1.518;2023-12-07T02:23:54;99056.31;;;1.12;91.95
22020;BME280;51298;53.362;-1.518;2023-12-07T02:26:40;99053.63;;;1.13;92.14
22020;BME280;51298;53.362;-1.518;2023-12-07T02:29:14;99058.88;;;1.12;91.91
22020;BME280;51298;53.362;-1.518;2023-12-07T02:32:02;99048.88;;;1.20;91.88
22020;BME280;51298;53.362;-1.518;2023-12-07T02:34:35;99042.06;;;1.19;92.21
22020;BME280;51298;53.362;-1.518;2023-12-07T02:37:30;99036.72;;;1.22;91.68
22020;BME280;51298;53.362;-1.518;2023-12-07T02:40:10;99023.03;;;1.21;91.88
22020;BME280;51298;53.362;-1.518;2023-12-07T02:42:58;99015.94;;;1.25;92.16
22020;BME280;51298;53.362;-1.518;2023-12-07T02:45:40;99016.41;;;1.30;92.35
22020;BME280;51298;53.362;-1.518;2023-12-07T02:48:28;99015.59;;;1.30;92.01
22020;BME280;51298;53.362;-1.518;2023-12-07T02:51:03;99012.63;;;1.36;91.80
22020;BME280;51298;53.362;-1.518;2023-12-07T02:53:51;98999.53;;;1.39;92.09
22020;BME280;51298;53.362;-1.518;2023-12-07T02:56:26;98998.38;;;1.43;91.68
22020;BME280;51298;53.362;-1.518;2023-12-07T02:59:13;98987.81;;;1.35;91.98
22020;BME280;51298;53.362;-1.518;2023-12-07T03:01:46;98997.06;;;1.37;92.29
22020;BME280;51298;53.362;-1.518;2023-12-07T03:04:32;98995.28;;;1.38;92.15
22020;BME280;51298;53.362;-1.518;2023-12-07T03:07:10;98986.94;;;1.47;91.84
22020;BME280;51298;53.362;-1.518;2023-12-07T03:09:58;98986.22;;;1.45;91.76
22020;BME280;51298;53.362;-1.518;2023-12-07T03:12:35;98985.78;;;1.51;92.33
22020;BME280;51298;53.362;-1.518;2023-12-07T03:15:22;98981.59;;;1.50;92.41
22020;BME280;51298;53.362;-1.518;2023-12-07T03:17:55;98978.56;;;1.56;92.34
22020;BME280;51298;53.362;-1.518;2023-12-07T03:20:43;98975.56;;;1.62;92.08
22020;BME280;51298;53.362;-1.518;2023-12-07T03:23:16;98969.47;;;1.63;91.65
22020;BME280;51298;53.362;-1.518;2023-12-07T03:26:03;98963.50;;;1.63;91.98
22020;BME280;51298;53.362;-1.518;2023-12-07T03:28:40;98959.56;;;1.70;91.50
22020;BME280;51298;53.362;-1.518;2023-12-07T03:31:29;98944.09;;;1.70;91.56
22020;BME280;51298;53.362;-1.518;2023-12-07T03:34:02;98942.44;;;1.69;92.14
22020;BME280;51298;53.362;-1.518;2023-12-07T03:36:48;98938.75;;;1.73;92.06
22020;BME280;51298;53.362;-1.518;2023-12-07T03:39:23;98937.06;;;1.72;91.80
22020;BME280;51298;53.362;-1.518;2023-12-07T03:42:11;98931.31;;;1.68;91.76
22020;BME280;51298;53.362;-1.518;2023-12-07T03:44:44;98926.34;;;1.78;91.82
22020;BME280;51298;53.362;-1.518;2023-12-07T03:47:32;98922.81;;;1.79;91.58
22020;BME280;51298;53.362;-1.518;2023-12-07T03:50:10;98925.41;;;1.79;91.95
22020;BME280;51298;53.362;-1.518;2023-12-07T03:52:56;98919.41;;;1.67;92.06
22020;BME280;51298;53.362;-1.518;2023-12-07T03:55:29;98911.94;;;1.76;92.19
22020;BME280;51298;53.362;-1.518;2023-12-07T03:58:21;98904.09;;;1.77;92.19
22020;BME280;51298;53.362;-1.518;2023-12-07T04:04:02;98897.28;;;1.76;91.79
22020;BME280;51298;53.362;-1.518;2023-12-07T04:06:40;98896.94;;;1.69;91.86
22020;BME280;51298;53.362;-1.518;2023-12-07T04:09:28;98893.53;;;1.69;91.91
22020;BME280;51298;53.362;-1.518;2023-12-07T04:12:02;98890.50;;;1.75;92.13
22020;BME280;51298;53.362;-1.518;2023-12-07T04:14:52;98881.63;;;1.79;91.92
22020;BME280;51298;53.362;-1.518;2023-12-07T04:17:25;98877.88;;;1.83;92.48
22020;BME280;51298;53.362;-1.518;2023-12-07T04:20:47;98882.09;;;1.73;92.23
22020;BME280;51298;53.362;-1.518;2023-12-07T04:23:20;98870.34;;;1.69;92.23
22020;BME280;51298;53.362;-1.518;2023-12-07T04:26:10;98858.81;;;1.75;92.64
22020;BME280;51298;53.362;-1.518;2023-12-07T04:28:43;98860.22;;;1.79;92.78
22020;BME280;51298;53.362;-1.518;2023-12-07T04:31:29;98851.66;;;1.78;92.83
22020;BME280;51298;53.362;-1.518;2023-12-07T04:34:01;98846.03;;;1.84;92.60
22020;BME280;51298;53.362;-1.518;2023-12-07T04:36:49;98845.94;;;1.86;92.61
22020;BME280;51298;53.362;-1.518;2023-12-07T04:39:25;98835.06;;;1.82;92.91
22020;BME280;51298;53.362;-1.518;2023-12-07T04:42:11;98823.81;;;1.83;92.51
22020;BME280;51298;53.362;-1.518;2023-12-07T04:44:45;98824.88;;;1.81;92.42
22020;BME280;51298;53.362;-1.518;2023-12-07T04:47:32;98825.94;;;1.78;92.69
22020;BME280;51298;53.362;-1.518;2023-12-07T04:50:05;98817.84;;;1.83;92.66
22020;BME280;51298;53.362;-1.518;2023-12-07T04:52:51;98812.00;;;1.81;92.82
22020;BME280;51298;53.362;-1.518;2023-12-07T04:55:25;98818.56;;;1.85;92.63
22020;BME280;51298;53.362;-1.518;2023-12-07T04:58:12;98816.31;;;1.91;92.56
22020;BME280;51298;53.362;-1.518;2023-12-07T05:00:46;98814.69;;;1.90;92.65
22020;BME280;51298;53.362;-1.518;2023-12-07T05:03:34;98810.84;;;1.96;92.73
22020;BME280;51298;53.362;-1.518;2023-12-07T05:06:08;98810.00;;;2.07;92.46
22020;BME280;51298;53.362;-1.518;2023-12-07T05:08:54;98809.91;;;2.08;92.49
22020;BME280;51298;53.362;-1.518;2023-12-07T05:11:27;98810.00;;;2.07;92.00
22020;BME280;51298;53.362;-1.518;2023-12-07T05:14:19;98806.53;;;2.08;92.37
22020;BME280;51298;53.362;-1.518;2023-12-07T05:16:51;98806.16;;;2.01;92.60
22020;BME280;51298;53.362;-1.518;2023-12-07T05:19:40;98796.53;;;1.92;92.76
22020;BME280;51298;53.362;-1.518;2023-12-07T05:22:20;98792.91;;;1.94;92.80
22020;BME280;51298;53.362;-1.518;2023-12-07T05:25:09;98796.09;;;1.98;92.70
22020;BME280;51298;53.362;-1.518;2023-12-07T05:27:44;98791.06;;;1.97;93.11
22020;BME280;51298;53.362;-1.518;2023-12-07T05:30:30;98801.38;;;1.97;92.82
22020;BME280;51298;53.362;-1.518;2023-12-07T05:33:12;98798.31;;;1.91;93.10
22020;BME280;51298;53.362;-1.518;2023-12-07T05:35:58;98793.28;;;2.01;93.13
22020;BME280;51298;53.362;-1.518;2023-12-07T05:38:38;98786.50;;;2.00;93.22
22020;BME280;51298;53.362;-1.518;2023-12-07T05:41:24;98797.13;;;1.95;93.41
22020;BME280;51298;53.362;-1.518;2023-12-07T05:44:05;98790.00;;;1.99;93.22
22020;BME280;51298;53.362;-1.518;2023-12-07T05:46:52;98779.59;;;2.01;93.12
22020;BME280;51298;53.362;-1.518;2023-12-07T05:49:26;98776.19;;;2.00;93.58
22020;BME280;51298;53.362;-1.518;2023-12-07T05:52:12;98771.88;;;2.01;93.38
22020;BME280;51298;53.362;-1.518;2023-12-07T05:54:46;98769.75;;;2.06;93.47
22020;BME280;51298;53.362;-1.518;2023-12-07T05:57:33;98771.97;;;2.10;93.48
22020;BME280;51298;53.362;-1.518;2023-12-07T06:00:09;98761.78;;;2.09;93.66
22020;BME280;51298;53.362;-1.518;2023-12-07T06:03:47;98753.81;;;2.12;93.44
22020;BME280;51298;53.362;-1.518;2023-12-07T06:06:33;98747.72;;;2.13;93.36
22020;BME280;51298;53.362;-1.518;2023-12-07T06:09:06;98730.75;;;2.10;93.14
22020;BME280;51298;53.362;-1.518;2023-12-07T06:11:52;98738.00;;;2.16;93.20
22020;BME280;51298;53.362;-1.518;2023-12-07T06:14:29;98730.28;;;2.16;93.40
22020;BME280;51298;53.362;-1.518;2023-12-07T06:17:16;98724.88;;;2.19;93.44
22020;BME280;51298;53.362;-1.518;2023-12-07T06:19:49;98719.84;;;2.18;93.29
22020;BME280;51298;53.362;-1.518;2023-12-07T06:22:36;98717.50;;;2.15;94.06
22020;BME280;51298;53.362;-1.518;2023-12-07T06:25:09;98712.69;;;2.22;93.64
22020;BME280;51298;53.362;-1.518;2023-12-07T06:27:56;98715.16;;;2.23;93.38
22020;BME280;51298;53.362;-1.518;2023-12-07T06:30:29;98708.34;;;2.22;93.17
22020;BME280;51298;53.362;-1.518;2023-12-07T06:33:15;98703.31;;;2.20;93.49
22020;BME280;51298;53.362;-1.518;2023-12-07T06:35:48;98695.38;;;2.24;93.82
22020;BME280;51298;53.362;-1.518;2023-12-07T06:38:37;98690.31;;;2.22;93.83
22020;BME280;51298;53.362;-1.518;2023-12-07T06:41:14;98682.81;;;2.19;93.98
22020;BME280;51298;53.362;-1.518;2023-12-07T06:44:00;98683.16;;;2.26;93.75
22020;BME280;51298;53.362;-1.518;2023-12-07T06:46:33;98678.59;;;2.29;94.05
22020;BME280;51298;53.362;-1.518;2023-12-07T06:52:59;98668.72;;;2.34;93.95
22020;BME280;51298;53.362;-1.518;2023-12-07T06:55:32;98667.81;;;2.35;93.78
22020;BME280;51298;53.362;-1.518;2023-12-07T06:58:18;98664.13;;;2.38;94.17
22020;BME280;51298;53.362;-1.518;2023-12-07T07:00:51;98660.38;;;2.42;93.88
22020;BME280;51298;53.362;-1.518;2023-12-07T07:03:37;98660.13;;;2.45;94.15
22020;BME280;51298;53.362;-1.518;2023-12-07T07:06:15;98661.66;;;2.48;94.14
22020;BME280;51298;53.362;-1.518;2023-12-07T07:09:01;98651.22;;;2.49;94.04
22020;BME280;51298;53.362;-1.518;2023-12-07T07:11:34;98648.00;;;2.57;93.96
22020;BME280;51298;53.362;-1.518;2023-12-07T07:14:19;98645.44;;;2.57;94.21
22020;BME280;51298;53.362;-1.518;2023-12-07T07:16:52;98644.63;;;2.56;94.03
22020;BME280;51298;53.362;-1.518;2023-12-07T07:19:40;98646.81;;;2.61;94.13
22020;BME280;51298;53.362;-1.518;2023-12-07T07:22:14;98642.50;;;2.61;93.99
22020;BME280;51298;53.362;-1.518;2023-12-07T07:25:01;98638.97;;;2.62;93.89
22020;BME280;51298;53.362;-1.518;2023-12-07T07:27:35;98636.16;;;2.65;93.99
22020;BME280;51298;53.362;-1.518;2023-12-07T07:30:21;98633.19;;;2.70;94.10
22020;BME280;51298;53.362;-1.518;2023-12-07T07:32:55;98628.84;;;2.71;93.74
22020;BME280;51298;53.362;-1.518;2023-12-07T07:35:40;98628.84;;;2.71;93.78
22020;BME280;51298;53.362;-1.518;2023-12-07T07:38:13;98622.06;;;2.69;94.42
22020;BME280;51298;53.362;-1.518;2023-12-07T07:41:00;98622.38;;;2.76;94.30
22020;BME280;51298;53.362;-1.518;2023-12-07T07:43:33;98616.00;;;2.80;94.23
22020;BME280;51298;53.362;-1.518;2023-12-07T07:46:19;98621.72;;;2.84;93.93
22020;BME280;51298;53.362;-1.518;2023-12-07T07:48:52;98624.69;;;2.79;93.94
22020;BME280;51298;53.362;-1.518;2023-12-07T07:51:38;98628.66;;;2.83;94.51
22020;BME280;51298;53.362;-1.518;2023-12-07T07:54:11;98617.03;;;2.89;94.57
22020;BME280;51298;53.362;-1.518;2023-12-07T07:56:58;98615.13;;;2.91;94.06
22020;BME280;51298;53.362;-1.518;2023-12-07T07:59:31;98617.59;;;2.92;94.23
22020;BME280;51298;53.362;-1.518;2023-12-07T08:02:17;98617.06;;;2.99;94.39
22020;BME280;51298;53.362;-1.518;2023-12-07T08:04:50;98614.81;;;3.05;94.39
22020;BME280;51298;53.362;-1.518;2023-12-07T08:07:36;98606.09;;;3.06;94.54
22020;BME280;51298;53.362;-1.518;2023-12-07T08:10:09;98615.22;;;3.10;94.27
22020;BME280;51298;53.362;-1.518;2023-12-07T08:12:58;98608.44;;;3.09;94.09
22020;BME280;51298;53.362;-1.518;2023-12-07T08:15:30;98613.75;;;3.08;94.22
22020;BME280;51298;53.362;-1.518;2023-12-07T08:18:16;98602.56;;;3.07;94.18
22020;BME280;51298;53.362;-1.518;2023-12-07T08:20:48;98598.81;;;3.11;94.23
22020;BME280;51298;53.362;-1.518;2023-12-07T08:23:34;98593.66;;;3.11;94.84
22020;BME280;51298;53.362;-1.518;2023-12-07T08:26:08;98593.94;;;3.18;94.34
22020;BME280;51298;53.362;-1.518;2023-12-07T08:28:54;98588.22;;;3.14;94.54
22020;BME280;51298;53.362;-1.518;2023-12-07T08:31:26;98580.38;;;3.16;94.16
22020;BME280;51298;53.362;-1.518;2023-12-07T08:34:12;98572.22;;;3.21;94.59
22020;BME280;51298;53.362;-1.518;2023-12-07T08:36:45;98572.22;;;3.21;94.62
22020;BME280;51298;53.362;-1.518;2023-12-07T08:39:35;98569.25;;;3.25;94.75
22020;BME280;51298;53.362;-1.518;2023-12-07T08:42:08;98572.53;;;3.27;94.51
22020;BME280;51298;53.362;-1.518;2023-12-07T08:44:54;98564.38;;;3.32;94.82
22020;BME280;51298;53.362;-1.518;2023-12-07T08:47:27;98552.84;;;3.36;94.85
22020;BME280;51298;53.362;-1.518;2023-12-07T08:50:13;98554.38;;;3.38;94.38
22020;BME280;51298;53.362;-1.518;2023-12-07T08:52:46;98549.19;;;3.38;94.42
22020;BME280;51298;53.362;-1.518;2023-12-07T08:55:33;98538.88;;;3.48;94.58
22020;BME280;51298;53.362;-1.518;2023-12-07T08:58:07;98539.56;;;3.40;94.91
22020;BME280;51298;53.362;-1.518;2023-12-07T09:00:53;98534.78;;;3.46;94.58
22020;BME280;51298;53.362;-1.518;2023-12-07T09:03:26;98537.00;;;3.50;95.06
22020;BME280;51298;53.362;-1.518;2023-12-07T09:06:13;98532.66;;;3.51;94.60
22020;BME280;51298;53.362;-1.518;2023-12-07T09:08:46;98517.72;;;3.54;94.31
22020;BME280;51298;53.362;-1.518;2023-12-07T09:11:33;98512.13;;;3.59;94.84
22020;BME280;51298;53.362;-1.518;2023-12-07T09:14:05;98504.66;;;3.56;94.76
22020;BME280;51298;53.362;-1.518;2023-12-07T09:16:52;98507.94;;;3.58;94.40
22020;BME280;51298;53.362;-1.518;2023-12-07T09:19:26;98501.94;;;3.57;94.56
22020;BME280;51298;53.362;-1.518;2023-12-07T09:22:12;98515.28;;;3.62;93.94
22020;BME280;51298;53.362;-1.518;2023-12-07T09:24:46;98508.47;;;3.61;94.39
22020;BME280;51298;53.362;-1.518;2023-12-07T09:27:34;98504.13;;;3.62;94.06
22020;BME280;51298;53.362;-1.518;2023-12-07T09:30:10;98497.06;;;3.64;94.77
22020;BME280;51298;53.362;-1.518;2023-12-07T09:32:58;98486.59;;;3.65;94.20
22020;BME280;51298;53.362;-1.518;2023-12-07T09:35:31;98490.41;;;3.61;94.68
22020;BME280;51298;53.362;-1.518;2023-12-07T09:38:17;98488.34;;;3.65;94.66
22020;BME280;51298;53.362;-1.518;2023-12-07T09:40:53;98486.19;;;3.70;94.94
22020;BME280;51298;53.362;-1.518;2023-12-07T09:43:39;98476.94;;;3.67;94.27
22020;BME280;51298;53.362;-1.518;2023-12-07T09:46:12;98476.69;;;3.71;94.35
22020;BME280;51298;53.362;-1.518;2023-12-07T09:49:00;98466.75;;;3.66;94.68
22020;BME280;51298;53.362;-1.518;2023-12-07T09:51:33;98469.19;;;3.67;94.70
22020;BME280;51298;53.362;-1.518;2023-12-07T09:54:23;98464.19;;;3.66;94.98
22020;BME280;51298;53.362;-1.518;2023-12-07T09:56:59;98460.38;;;3.70;94.35
22020;BME280;51298;53.362;-1.518;2023-12-07T09:59:46;98455.88;;;3.72;94.46
22020;BME280;51298;53.362;-1.518;2023-12-07T10:02:18;98449.22;;;3.70;94.70
22020;BME280;51298;53.362;-1.518;2023-12-07T10:05:11;98450.69;;;3.72;94.75
22020;BME280;51298;53.362;-1.518;2023-12-07T10:07:48;98437.53;;;3.75;94.18
22020;BME280;51298;53.362;-1.518;2023-12-07T10:10:35;98437.78;;;3.72;94.65
22020;BME280;51298;53.362;-1.518;2023-12-07T10:13:12;98445.16;;;3.77;94.05
22020;BME280;51298;53.362;-1.518;2023-12-07T10:16:09;98434.53;;;3.80;94.95
22020;BME280;51298;53.362;-1.518;2023-12-07T10:18:42;98425.31;;;3.77;94.55
22020;BME280;51298;53.362;-1.518;2023-12-07T10:21:33;98423.81;;;3.84;94.59
22020;BME280;51298;53.362;-1.518;2023-12-07T10:24:06;98434.25;;;3.83;94.17
22020;BME280;51298;53.362;-1.518;2023-12-07T10:26:52;98422.97;;;3.84;94.37
22020;BME280;51298;53.362;-1.518;2023-12-07T10:29:29;98423.66;;;3.86;94.12
22020;BME280;51298;53.362;-1.518;2023-12-07T10:32:16;98406.53;;;3.85;93.98
22020;BME280;51298;53.362;-1.518;2023-12-07T10:34:50;98413.16;;;3.87;94.44
22020;BME280;51298;53.362;-1.518;2023-12-07T10:37:37;98410.31;;;3.90;94.05
22020;BME280;51298;53.362;-1.518;2023-12-07T10:40:10;98416.44;;;3.89;94.71
22020;BME280;51298;53.362;-1.518;2023-12-07T10:43:04;98405.16;;;3.90;94.50
22020;BME280;51298;53.362;-1.518;2023-12-07T10:45:37;98399.72;;;3.94;94.64
22020;BME280;51298;53.362;-1.518;2023-12-07T10:48:23;98393.72;;;3.93;93.92
22020;BME280;51298;53.362;-1.518;2023-12-07T10:51:00;98382.28;;;3.96;94.77
22020;BME280;51298;53.362;-1.518;2023-12-07T10:53:51;98373.44;;;3.98;94.37
22020;BME280;51298;53.362;-1.518;2023-12-07T10:56:40;98363.81;;;4.00;94.25
22020;BME280;51298;53.362;-1.518;2023-12-07T10:59:31;98354.13;;;4.02;94.25
22020;BME280;51298;53.362;-1.518;2023-12-07T11:02:06;98346.66;;;3.99;94.43
22020;BME280;51298;53.362;-1.518;2023-12-07T11:04:59;98344.59;;;4.03;94.45
22020;BME280;51298;53.362;-1.518;2023-12-07T11:07:55;98358.88;;;4.07;94.84
22020;BME280;51298;53.362;-1.518;2023-12-07T11:10:47;98340.38;;;4.11;94.49
22020;BME280;51298;53.362;-1.518;2023-12-07T11:13:27;98329.72;;;4.14;95.04
22020;BME280;51298;53.362;-1.518;2023-12-07T11:16:14;98326.34;;;4.14;94.76
22020;BME280;51298;53.362;-1.518;2023-12-07T11:18:47;98324.28;;;4.18;94.72
22020;BME280;51298;53.362;-1.518;2023-12-07T11:21:35;98324.00;;;4.21;94.41
22020;BME280;51298;53.362;-1.518;2023-12-07T11:24:16;98308.50;;;4.21;95.04
22020;BME280;51298;53.362;-1.518;2023-12-07T11:27:05;98297.19;;;4.22;94.67
22020;BME280;51298;53.362;-1.518;2023-12-07T11:29:38;98302.09;;;4.25;94.63
22020;BME280;51298;53.362;-1.518;2023-12-07T11:32:24;98304.66;;;4.25;94.32
22020;BME280;51298;53.362;-1.518;2023-12-07T11:35:04;98286.00;;;4.31;94.57
22020;BME280;51298;53.362;-1.518;2023-12-07T11:38:09;98294.72;;;4.30;94.91
22020;BME280;51298;53.362;-1.518;2023-12-07T11:40:44;98296.47;;;4.29;94.03
22020;BME280;51298;53.362;-1.518;2023-12-07T11:43:37;98285.56;;;4.35;94.52
22020;BME280;51298;53.362;-1.518;2023-12-07T11:46:14;98283.44;;;4.31;94.62
22020;BME280;51298;53.362;-1.518;2023-12-07T11:49:00;98285.06;;;4.32;94.53
22020;BME280;51298;53.362;-1.518;2023-12-07T11:51:34;98277.13;;;4.33;93.96
22020;BME280;51298;53.362;-1.518;2023-12-07T11:54:22;98275.53;;;4.32;94.18
22020;BME280;51298;53.362;-1.518;2023-12-07T11:56:58;98269.25;;;4.35;94.34
22020;BME280;51298;53.362;-1.518;2023-12-07T11:59:44;98264.38;;;4.32;93.79
22020;BME280;51298;53.362;-1.518;2023-12-07T12:02:18;98256.91;;;4.29;93.82
22020;BME280;51298;53.362;-1.518;2023-12-07T12:05:04;98248.88;;;4.32;93.87
22020;BME280;51298;53.362;-1.518;2023-12-07T12:07:37;98251.56;;;4.30;93.98
22020;BME280;51298;53.362;-1.518;2023-12-07T12:10:23;98237.28;;;4.36;94.67
22020;BME280;51298;53.362;-1.518;2023-12-07T12:13:01;98235.66;;;4.35;94.66
22020;BME280;51298;53.362;-1.518;2023-12-07T12:15:47;98232.81;;;4.28;94.37
22020;BME280;51298;53.362;-1.518;2023-12-07T12:18:20;98224.50;;;4.34;94.33
22020;BME280;51298;53.362;-1.518;2023-12-07T12:21:09;98210.75;;;4.34;93.77
22020;BME280;51298;53.362;-1.518;2023-12-07T12:23:41;98206.81;;;4.30;94.27
22020;BME280;51298;53.362;-1.518;2023-12-07T12:26:27;98191.19;;;4.31;93.70
22020;BME280;51298;53.362;-1.518;2023-12-07T12:29:01;98186.81;;;4.32;94.20
22020;BME280;51298;53.362;-1.518;2023-12-07T12:31:51;98186.94;;;4.30;94.25
22020;BME280;51298;53.362;-1.518;2023-12-07T12:34:24;98192.28;;;4.29;93.69
22020;BME280;51298;53.362;-1.518;2023-12-07T12:37:11;98186.94;;;4.30;94.05
22020;BME280;51298;53.362;-1.518;2023-12-07T12:39:45;98181.94;;;4.29;94.11
22020;BME280;51298;53.362;-1.518;2023-12-07T12:42:31;98172.28;;;4.31;93.66
22020;BME280;51298;53.362;-1.518;2023-12-07T12:45:05;98164.53;;;4.31;93.78
22020;BME280;51298;53.362;-1.518;2023-12-07T12:47:52;98166.16;;;4.32;94.26
22020;BME280;51298;53.362;-1.518;2023-12-07T12:53:20;98152.53;;;4.30;94.68
22020;BME280;51298;53.362;-1.518;2023-12-07T12:55:53;98143.84;;;4.31;93.96
22020;BME280;51298;53.362;-1.518;2023-12-07T12:58:42;98140.28;;;4.32;93.50
22020;BME280;51298;53.362;-1.518;2023-12-07T13:01:16;98129.16;;;4.31;93.82
22020;BME280;51298;53.362;-1.518;2023-12-07T13:04:09;98134.97;;;4.33;93.38
22020;BME280;51298;53.362;-1.518;2023-12-07T13:06:42;98123.53;;;4.36;93.83
22020;BME280;51298;53.362;-1.518;2023-12-07T13:09:28;98111.88;;;4.32;94.25
22020;BME280;51298;53.362;-1.518;2023-12-07T13:12:00;98103.50;;;4.38;93.33
22020;BME280;51298;53.362;-1.518;2023-12-07T13:14:47;98100.25;;;4.36;93.59
22020;BME280;51298;53.362;-1.518;2023-12-07T13:17:20;98096.47;;;4.30;93.28
22020;BME280;51298;53.362;-1.518;2023-12-07T13:20:08;98093.59;;;4.33;93.85
22020;BME280;51298;53.362;-1.518;2023-12-07T13:22:45;98089.41;;;4.32;93.97
22020;BME280;51298;53.362;-1.518;2023-12-07T13:25:31;98086.00;;;4.32;94.26
22020;BME280;51298;53.362;-1.518;2023-12-07T13:28:04;98078.25;;;4.32;94.14
22020;BME280;51298;53.362;-1.518;2023-12-07T13:30:52;98067.56;;;4.27;93.81
22020;BME280;51298;53.362;-1.518;2023-12-07T13:33:27;98051.72;;;4.30;93.95
22020;BME280;51298;53.362;-1.518;2023-12-07T13:36:13;98052.25;;;4.33;93.86
22020;BME280;51298;53.362;-1.518;2023-12-07T13:38:46;98037.03;;;4.30;93.71
22020;BME280;51298;53.362;-1.518;2023-12-07T13:41:33;98025.25;;;4.28;93.88
22020;BME280;51298;53.362;-1.518;2023-12-07T13:44:06;98024.28;;;4.29;93.58
22020;BME280;51298;53.362;-1.518;2023-12-07T13:46:52;98026.84;;;4.29;94.22
22020;BME280;51298;53.362;-1.518;2023-12-07T13:49:27;98029.44;;;4.29;94.24
22020;BME280;51298;53.362;-1.518;2023-12-07T13:52:18;98026.06;;;4.28;93.91
22020;BME280;51298;53.362;-1.518;2023-12-07T13:54:51;98021.19;;;4.25;94.58
22020;BME280;51298;53.362;-1.518;2023-12-07T13:57:39;98019.09;;;4.29;94.03
22020;BME280;51298;53.362;-1.518;2023-12-07T14:00:12;98015.88;;;4.27;94.02
22020;BME280;51298;53.362;-1.518;2023-12-07T14:02:59;98010.53;;;4.28;93.75
22020;BME280;51298;53.362;-1.518;2023-12-07T14:05:32;98006.47;;;4.26;93.99
22020;BME280;51298;53.362;-1.518;2023-12-07T14:08:24;97990.66;;;4.29;93.73
22020;BME280;51298;53.362;-1.518;2023-12-07T14:10:59;97993.41;;;4.27;93.62
22020;BME280;51298;53.362;-1.518;2023-12-07T14:13:50;97975.97;;;4.29;93.67
22020;BME280;51298;53.362;-1.518;2023-12-07T14:16:28;97973.56;;;4.28;93.51
22020;BME280;51298;53.362;-1.518;2023-12-07T14:19:46;97974.53;;;4.27;93.33
22020;BME280;51298;53.362;-1.518;2023-12-07T14:22:21;97972.75;;;4.27;93.80
22020;BME280;51298;53.362;-1.518;2023-12-07T14:25:28;97965.50;;;4.31;93.22